createdAt,value
2023-04-16T00:00:16.210Z,9.50
2023-04-16T00:02:45.536Z,9.30
2023-04-16T00:10:08.310Z,9.30
2023-04-16T00:12:35.026Z,9.00
2023-04-16T00:15:01.970Z,9.30
2023-04-16T00:17:28.763Z,9.20
2023-04-16T00:22:22.732Z,9.20
2023-04-16T00:24:49.494Z,9.20
2023-04-16T00:27:16.265Z,9.10
2023-04-16T00:32:10.188Z,9.50
2023-04-16T00:37:06.205Z,9.20
2023-04-16T00:39:32.965Z,9.30
2023-04-16T00:42:01.953Z,9.20
2023-04-16T00:44:35.963Z,10.30
2023-04-16T00:47:03.260Z,9.50
2023-04-16T00:51:57.363Z,9.30
2023-04-16T00:54:27.242Z,9.70
2023-04-16T00:56:56.750Z,9.90
2023-04-16T00:59:23.514Z,9.70
2023-04-16T01:01:52.855Z,9.50
2023-04-16T01:04:19.845Z,9.20
2023-04-16T01:09:13.790Z,9.40
2023-04-16T01:11:40.732Z,9.70
2023-04-16T01:14:09.948Z,9.80
2023-04-16T01:16:39.142Z,9.30
2023-04-16T01:21:33.103Z,9.50
2023-04-16T01:24:04.635Z,9.60
2023-04-16T01:26:33.820Z,9.80
2023-04-16T01:29:05.084Z,9.80
2023-04-16T01:33:59.249Z,9.70
2023-04-16T01:38:53.747Z,9.60
2023-04-16T01:41:22.927Z,10.60
2023-04-16T01:46:33.401Z,9.90
2023-04-16T01:49:02.660Z,9.80
2023-04-16T01:56:25.548Z,9.60
2023-04-16T01:58:52.951Z,9.90
2023-04-16T02:01:19.777Z,9.50
2023-04-16T02:03:46.955Z,9.30
2023-04-16T02:06:13.902Z,9.70
2023-04-16T02:08:43.267Z,9.30
2023-04-16T02:13:37.511Z,9.50
2023-04-16T02:18:36.019Z,9.20
2023-04-16T02:21:06.539Z,9.40
2023-04-16T02:26:01.154Z,8.90
2023-04-16T02:30:55.132Z,9.00
2023-04-16T02:33:22.012Z,9.70
2023-04-16T02:35:48.781Z,8.90
2023-04-16T02:40:45.434Z,8.90
2023-04-16T02:48:08.775Z,8.70
2023-04-16T02:53:03.460Z,8.80
2023-04-16T02:55:32.444Z,8.70
2023-04-16T02:57:59.212Z,9.00
2023-04-16T03:00:30.670Z,8.60
2023-04-16T03:07:56.618Z,8.80
2023-04-16T03:12:51.064Z,9.00
2023-04-16T03:15:18.095Z,8.50
2023-04-16T03:22:42.082Z,8.80
2023-04-16T03:25:09.146Z,8.90
2023-04-16T03:30:05.246Z,8.80
2023-04-16T03:34:59.207Z,9.00
2023-04-16T03:37:28.248Z,9.00
2023-04-16T03:39:54.974Z,8.70
2023-04-16T03:47:18.475Z,9.00
2023-04-16T03:49:45.301Z,8.70
2023-04-16T03:54:39.276Z,9.30
2023-04-16T03:57:08.179Z,8.90
2023-04-16T04:04:32.060Z,8.70
2023-04-16T04:07:01.049Z,8.90
2023-04-16T04:09:27.880Z,8.40
2023-04-16T04:11:54.979Z,9.10
2023-04-16T04:14:21.739Z,8.80
2023-04-16T04:19:17.939Z,8.80
2023-04-16T04:21:44.800Z,9.00
2023-04-16T04:24:16.211Z,9.10
2023-04-16T04:26:45.425Z,9.30
2023-04-16T04:29:16.965Z,8.90
2023-04-16T04:36:38.081Z,9.10
2023-04-16T04:39:09.725Z,9.00
2023-04-16T04:41:39.097Z,9.20
2023-04-16T04:46:33.215Z,9.10
2023-04-16T04:56:21.741Z,10.10
2023-04-16T04:58:50.671Z,9.10
2023-04-16T05:01:17.678Z,9.20
2023-04-16T05:06:13.972Z,9.10
2023-04-16T05:08:48.291Z,9.40
2023-04-16T05:11:15.085Z,10.20
2023-04-16T05:13:41.938Z,9.10
2023-04-16T05:18:43.572Z,9.00
2023-04-16T05:21:15.014Z,9.30
2023-04-16T05:23:41.828Z,9.30
2023-04-16T05:26:08.554Z,9.10
2023-04-16T05:31:04.791Z,9.30
2023-04-16T05:35:58.785Z,9.40
2023-04-16T05:38:25.545Z,9.50
2023-04-16T05:43:19.468Z,9.50
2023-04-16T05:45:48.668Z,9.30
2023-04-16T05:48:17.803Z,9.20
2023-04-16T05:53:14.309Z,9.10
2023-04-16T05:55:43.306Z,9.50
2023-04-16T05:58:10.052Z,9.50
2023-04-16T06:00:39.286Z,9.30
2023-04-16T06:03:06.155Z,9.50
2023-04-16T06:08:00.312Z,9.20
2023-04-16T06:10:27.100Z,9.60
2023-04-16T06:15:21.093Z,9.40
2023-04-16T06:17:47.891Z,9.30
2023-04-16T06:22:41.826Z,9.60
2023-04-16T06:27:41.010Z,9.20
2023-04-16T06:30:14.869Z,9.70
2023-04-16T06:32:44.911Z,9.50
2023-04-16T06:35:11.766Z,9.40
2023-04-16T06:37:41.497Z,9.40
2023-04-16T06:40:08.791Z,9.60
2023-04-16T06:45:05.664Z,9.60
2023-04-16T06:52:29.024Z,9.60
2023-04-16T06:54:56.305Z,10.60
2023-04-16T07:02:19.903Z,9.70
2023-04-16T07:04:46.721Z,9.70
2023-04-16T07:07:13.461Z,10.10
2023-04-16T07:09:40.407Z,9.90
2023-04-16T07:12:09.272Z,9.90
2023-04-16T07:17:03.642Z,10.40
2023-04-16T07:19:32.888Z,10.30
2023-04-16T07:22:02.122Z,10.40
2023-04-16T07:24:28.908Z,10.40
2023-04-16T07:26:55.715Z,10.20
2023-04-16T07:29:22.417Z,10.20
2023-04-16T07:31:49.299Z,10.30
2023-04-16T07:34:16.092Z,10.20
2023-04-16T07:36:42.871Z,10.90
2023-04-16T07:39:13.153Z,10.50
2023-04-16T07:46:45.513Z,10.30
2023-04-16T07:49:18.183Z,10.60
2023-04-16T08:01:55.145Z,9.90
2023-04-16T08:04:27.381Z,10.90
2023-04-16T08:06:54.588Z,10.30
2023-04-16T08:09:22.822Z,10.40
2023-04-16T08:11:52.051Z,10.50
2023-04-16T08:14:18.877Z,11.20
2023-04-16T08:16:48.133Z,11.20
2023-04-16T08:26:38.854Z,10.30
2023-04-16T08:29:05.629Z,10.90
2023-04-16T08:34:01.921Z,10.70
2023-04-16T08:36:31.767Z,11.00
2023-04-16T08:38:58.715Z,11.40
2023-04-16T08:41:27.537Z,12.10
2023-04-16T08:43:54.354Z,11.30
2023-04-16T08:46:24.757Z,11.40
2023-04-16T08:48:54.064Z,12.30
2023-04-16T08:51:20.842Z,11.50
2023-04-16T08:53:54.335Z,11.40
2023-04-16T08:56:22.801Z,11.50
2023-04-16T08:58:51.997Z,11.50
2023-04-16T09:01:19.102Z,11.50
2023-04-16T09:03:51.744Z,11.60
2023-04-16T09:06:23.487Z,11.60
2023-04-16T09:08:50.403Z,11.70
2023-04-16T09:11:20.551Z,12.60
2023-04-16T09:13:47.490Z,11.80
2023-04-16T09:16:14.746Z,11.70
2023-04-16T09:18:41.584Z,11.80
2023-04-16T09:21:10.015Z,11.70
2023-04-16T09:23:41.476Z,11.70
2023-04-16T09:28:55.654Z,11.80
2023-04-16T09:31:24.921Z,11.90
2023-04-16T09:34:02.806Z,11.90
2023-04-16T09:36:32.676Z,12.00
2023-04-16T09:39:02.057Z,12.00
2023-04-16T09:41:32.130Z,12.00
2023-04-16T09:44:04.221Z,12.00
2023-04-16T09:46:51.359Z,12.10
2023-04-16T09:49:20.732Z,12.10
2023-04-16T09:51:50.973Z,12.10
2023-04-16T09:54:17.733Z,12.10
2023-04-16T09:56:47.038Z,12.20
2023-04-16T09:59:20.987Z,12.20
2023-04-16T10:01:49.658Z,12.20
2023-04-16T10:04:17.109Z,12.20
2023-04-16T10:06:44.196Z,12.30
2023-04-16T10:09:13.147Z,12.30
2023-04-16T10:11:39.933Z,12.30
2023-04-16T10:14:06.786Z,12.30
2023-04-16T10:16:33.534Z,12.30
2023-04-16T10:19:00.434Z,12.40
2023-04-16T10:21:34.233Z,12.40
2023-04-16T10:24:01.331Z,12.40
2023-04-16T10:26:29.072Z,12.40
2023-04-16T10:28:55.856Z,12.40
2023-04-16T10:31:27.063Z,12.40
2023-04-16T10:33:53.816Z,12.40
2023-04-16T10:36:24.591Z,12.40
2023-04-16T10:38:53.449Z,12.40
2023-04-16T10:41:20.337Z,12.40
2023-04-16T10:43:48.168Z,12.50
2023-04-16T10:46:26.723Z,12.50
2023-04-16T10:48:54.376Z,12.40
2023-04-16T10:51:29.406Z,12.50
2023-04-16T10:53:57.496Z,12.70
2023-04-16T10:56:27.696Z,12.80
2023-04-16T10:59:00.414Z,12.80
2023-04-16T11:01:37.832Z,12.90
2023-04-16T11:04:24.949Z,12.90
2023-04-16T11:07:04.106Z,12.90
2023-04-16T11:10:05.789Z,12.90
2023-04-16T11:12:40.498Z,12.80
2023-04-16T11:15:14.426Z,12.80
2023-04-16T11:17:46.068Z,12.80
2023-04-16T11:20:28.406Z,12.80
2023-04-16T11:22:56.290Z,12.80
2023-04-16T11:25:29.616Z,12.70
2023-04-16T11:27:59.237Z,12.70
2023-04-16T11:30:30.669Z,12.60
2023-04-16T11:32:57.465Z,12.70
2023-04-16T11:35:24.450Z,12.70
2023-04-16T11:37:58.110Z,12.80
2023-04-16T11:40:27.482Z,12.90
2023-04-16T11:42:54.569Z,12.90
2023-04-16T11:45:23.526Z,13.10
2023-04-16T11:47:57.970Z,13.20
2023-04-16T11:50:30.537Z,13.80
2023-04-16T11:52:58.011Z,14.30
2023-04-16T11:55:24.849Z,14.70
2023-04-16T11:57:52.663Z,16.10
2023-04-16T12:00:23.133Z,17.20
2023-04-16T12:02:52.173Z,18.00
2023-04-16T12:05:32.054Z,18.00
2023-04-16T12:08:02.602Z,17.40
2023-04-16T12:10:32.521Z,17.00
2023-04-16T12:13:17.339Z,16.90
2023-04-16T12:15:48.282Z,17.00
2023-04-16T12:18:17.836Z,17.20
2023-04-16T12:20:44.924Z,17.10
2023-04-16T12:23:26.928Z,16.80
2023-04-16T12:25:56.462Z,16.80
2023-04-16T12:28:33.829Z,16.60
2023-04-16T12:31:01.143Z,16.40
2023-04-16T12:33:27.963Z,16.30
2023-04-16T12:35:57.333Z,16.20
2023-04-16T12:38:25.580Z,15.90
2023-04-16T12:40:52.807Z,16.10
2023-04-16T12:43:21.500Z,16.10
2023-04-16T12:45:53.208Z,16.10
2023-04-16T12:50:53.008Z,15.90
2023-04-16T12:55:49.403Z,16.20
2023-04-16T13:00:46.071Z,15.90
2023-04-16T13:03:16.138Z,15.80
2023-04-16T13:08:10.331Z,15.60
2023-04-16T13:10:37.322Z,15.40
2023-04-16T13:13:04.063Z,15.50
2023-04-16T13:15:33.274Z,15.50
2023-04-16T13:18:00.183Z,15.10
2023-04-16T13:20:27.045Z,15.70
2023-04-16T13:22:54.096Z,15.60
2023-04-16T13:25:20.938Z,15.80
2023-04-16T13:27:54.638Z,15.60
2023-04-16T13:30:21.380Z,15.30
2023-04-16T13:32:50.237Z,15.50
2023-04-16T13:35:17.076Z,15.50
2023-04-16T13:37:46.041Z,15.50
2023-04-16T13:40:15.313Z,15.50
2023-04-16T13:42:42.363Z,15.50
2023-04-16T13:45:11.971Z,15.60
2023-04-16T13:47:42.997Z,15.90
2023-04-16T13:50:14.602Z,15.20
2023-04-16T13:52:41.420Z,15.60
2023-04-16T13:55:14.220Z,15.10
2023-04-16T14:00:13.201Z,15.70
2023-04-16T14:02:45.942Z,16.30
2023-04-16T14:07:42.245Z,16.60
2023-04-16T14:10:14.101Z,16.70
2023-04-16T14:12:43.068Z,16.90
2023-04-16T14:15:10.390Z,17.20
2023-04-16T14:17:37.413Z,17.00
2023-04-16T14:20:07.020Z,17.00
2023-04-16T14:22:33.810Z,17.10
2023-04-16T14:25:07.581Z,16.80
2023-04-16T14:27:36.938Z,16.30
2023-04-16T14:30:07.528Z,16.40
2023-04-16T14:32:37.364Z,16.50
2023-04-16T14:35:07.026Z,16.00
2023-04-16T14:37:35.923Z,16.00
2023-04-16T14:40:08.275Z,16.20
2023-04-16T14:42:36.702Z,16.30
2023-04-16T14:45:06.496Z,15.60
2023-04-16T14:47:45.806Z,15.80
2023-04-16T14:50:17.544Z,15.60
2023-04-16T14:52:46.897Z,16.00
2023-04-16T14:55:13.654Z,15.80
2023-04-16T14:57:43.172Z,16.40
2023-04-16T15:00:11.163Z,15.70
2023-04-16T15:02:42.755Z,15.60
2023-04-16T15:05:12.666Z,16.20
2023-04-16T15:10:08.647Z,15.40
2023-04-16T15:12:37.565Z,14.80
2023-04-16T15:15:08.618Z,14.80
2023-04-16T15:17:35.718Z,15.10
2023-04-16T15:22:34.839Z,14.90
2023-04-16T15:25:01.943Z,14.90
2023-04-16T15:27:28.719Z,14.70
2023-04-16T15:29:57.711Z,15.00
2023-04-16T15:32:24.727Z,14.30
2023-04-16T15:37:20.886Z,14.70
2023-04-16T15:44:45.360Z,14.40
2023-04-16T15:47:12.118Z,14.80
2023-04-16T15:49:41.893Z,14.60
2023-04-16T15:52:10.389Z,14.60
2023-04-16T15:57:04.305Z,14.70
2023-04-16T16:02:01.937Z,14.60
2023-04-16T16:09:26.590Z,14.30
2023-04-16T16:11:55.997Z,14.20
2023-04-16T16:19:23.385Z,14.40
2023-04-16T16:21:50.131Z,14.40
2023-04-16T16:24:19.342Z,14.30
2023-04-16T16:26:46.184Z,14.30
2023-04-16T16:29:17.661Z,13.80
2023-04-16T16:31:44.536Z,14.20
2023-04-16T16:34:20.075Z,14.20
2023-04-16T16:39:18.133Z,14.30
2023-04-16T16:41:45.674Z,14.10
2023-04-16T16:54:03.659Z,13.70
2023-04-16T16:56:30.403Z,14.00
2023-04-16T16:58:57.233Z,13.40
2023-04-16T17:01:25.625Z,13.60
2023-04-16T17:03:57.153Z,13.70
2023-04-16T17:06:27.252Z,13.50
2023-04-16T17:08:56.538Z,13.50
2023-04-16T17:11:23.407Z,13.10
2023-04-16T17:13:50.137Z,13.00
2023-04-16T17:16:17.716Z,13.80
2023-04-16T17:21:11.687Z,13.40
2023-04-16T17:23:40.590Z,13.30
2023-04-16T17:26:07.922Z,13.20
2023-04-16T17:31:02.898Z,13.00
2023-04-16T17:38:24.056Z,13.00
2023-04-16T17:40:53.280Z,13.00
2023-04-16T17:43:20.075Z,13.00
2023-04-16T17:45:49.137Z,12.90
2023-04-16T17:48:16.125Z,12.80
2023-04-16T17:50:45.154Z,12.50
2023-04-16T17:53:11.957Z,12.70
2023-04-16T17:55:38.714Z,12.70
2023-04-16T17:58:05.513Z,12.60
2023-04-16T18:00:34.582Z,12.50
2023-04-16T18:03:01.400Z,12.50
2023-04-16T18:05:30.636Z,12.40
2023-04-16T18:10:27.062Z,12.40
2023-04-16T18:12:53.862Z,12.40
2023-04-16T18:15:22.844Z,12.10
2023-04-16T18:17:49.687Z,11.70
2023-04-16T18:22:46.387Z,12.30
2023-04-16T18:25:13.324Z,12.40
2023-04-16T18:27:42.290Z,12.20
2023-04-16T18:30:20.138Z,12.20
2023-04-16T18:33:09.979Z,12.40
2023-04-16T18:35:41.460Z,12.20
2023-04-16T18:40:36.222Z,12.10
2023-04-16T18:43:05.620Z,12.10
2023-04-16T18:45:34.240Z,12.10
2023-04-16T18:55:30.114Z,11.90
2023-04-16T18:57:57.041Z,11.90
2023-04-16T19:00:24.133Z,11.90
2023-04-16T19:02:53.095Z,11.90
2023-04-16T19:05:23.081Z,11.80
2023-04-16T19:10:19.368Z,11.80
2023-04-16T19:12:48.886Z,11.70
2023-04-16T19:17:45.076Z,11.70
2023-04-16T19:20:15.317Z,11.80
2023-04-16T19:22:42.054Z,11.50
2023-04-16T19:25:09.338Z,11.60
2023-04-16T19:37:25.926Z,11.30
2023-04-16T19:39:55.037Z,11.30
2023-04-16T19:42:21.809Z,11.00
2023-04-16T19:44:48.600Z,11.30
2023-04-16T19:47:17.767Z,11.10
2023-04-16T19:49:44.572Z,11.60
2023-04-16T19:57:08.398Z,11.50
2023-04-16T19:59:35.307Z,11.40
2023-04-16T20:04:29.663Z,11.30
2023-04-16T20:11:53.090Z,11.10
2023-04-16T20:14:19.818Z,11.00
2023-04-16T20:16:46.617Z,10.80
2023-04-16T20:19:18.010Z,11.10
2023-04-16T20:21:45.627Z,11.10
2023-04-16T20:24:15.462Z,11.00
2023-04-16T20:29:11.879Z,10.50
2023-04-16T20:31:38.788Z,11.00
2023-04-16T20:36:34.856Z,10.90
2023-04-16T20:41:40.026Z,11.60
2023-04-16T20:44:18.161Z,10.50
2023-04-16T20:46:49.443Z,11.00
2023-04-16T20:49:18.471Z,11.50
2023-04-16T20:54:12.779Z,10.60
2023-04-16T20:56:41.785Z,10.40
2023-04-16T21:04:06.732Z,10.60
2023-04-16T21:09:10.782Z,10.50
2023-04-16T21:11:42.420Z,11.10
2023-04-16T21:14:14.234Z,10.60
2023-04-16T21:16:41.054Z,10.50
2023-04-16T21:21:36.673Z,10.60
2023-04-16T21:24:06.249Z,10.60
2023-04-16T21:26:33.020Z,10.60
2023-04-16T21:28:59.791Z,10.70
2023-04-16T21:31:28.803Z,11.10
2023-04-16T21:33:55.636Z,11.20
2023-04-16T21:36:22.390Z,10.80
2023-04-16T21:38:51.353Z,10.70
2023-04-16T21:41:18.073Z,10.60
2023-04-16T21:46:14.243Z,10.60
2023-04-16T21:48:41.098Z,10.70
2023-04-16T21:56:04.172Z,10.60
2023-04-16T21:58:31.038Z,10.60
2023-04-16T22:00:57.826Z,10.60
2023-04-16T22:03:28.197Z,10.50
2023-04-16T22:06:01.684Z,10.70
2023-04-16T22:11:02.307Z,10.60
2023-04-16T22:13:32.804Z,10.70
2023-04-16T22:16:02.793Z,10.20
2023-04-16T22:21:00.203Z,10.70
2023-04-16T22:23:27.034Z,10.60
2023-04-16T22:25:54.904Z,10.40
2023-04-16T22:30:48.849Z,10.60
2023-04-16T22:33:15.801Z,10.40
2023-04-16T22:35:44.759Z,10.60
2023-04-16T22:38:11.622Z,10.50
2023-04-16T22:40:38.470Z,10.90
2023-04-16T22:47:59.878Z,10.50
2023-04-16T22:50:27.202Z,10.90
2023-04-16T22:52:56.415Z,10.50
2023-04-16T22:55:23.293Z,10.40
2023-04-16T23:00:17.975Z,10.50
2023-04-16T23:05:14.660Z,10.70
2023-04-16T23:07:41.385Z,10.20
2023-04-16T23:10:08.716Z,10.40
2023-04-16T23:12:38.669Z,10.50
2023-04-16T23:15:06.629Z,10.50
2023-04-16T23:17:36.331Z,10.50
2023-04-16T23:20:05.638Z,10.50
2023-04-16T23:22:32.437Z,10.80
2023-04-16T23:24:59.192Z,10.40
2023-04-16T23:27:26.300Z,10.70
2023-04-16T23:32:20.312Z,10.30
2023-04-16T23:39:41.505Z,10.30
2023-04-16T23:42:10.400Z,10.30
2023-04-16T23:44:37.172Z,10.80
2023-04-16T23:47:04.003Z,11.00
2023-04-16T23:49:32.915Z,10.20
2023-04-16T23:51:59.661Z,10.80
2023-04-16T23:54:28.599Z,10.60
2023-04-16T23:56:57.026Z,11.00
2023-04-16T23:59:25.918Z,10.30
